Bellingham, Washington
Current Conditions -  °F | °C
As of 5:53 AM on Monday 20 Oct 2014 (Local Time) from KBLI Reporting Station
Light Rain Light Rain  
Wind Chill: 59°   Ceiling: 2200
Heat Index: 59°   Visibility: 9mi
Dew Point: 55°   Wind: 5mph
Humidity: 87%   Direction: 170°S
Pressure: 29.66"   Gusts: NA
Location:  48.75°N, 122.47°W
Report Text: KBLI 201253Z AUTO 17004KT 9SM -RA OVC022 15/13 A2966 RMK AO2 RAB15 SLP051 P0001 T01500128
Loading
Personal Weather Stations






























Interactive Weather Map
Tropical Storm Tracking
New forecast layout! Learn more

10-Day Weather Forecast

Advertisements
Track Severe Weather on mobile